Alaskan Explorer — WBD9918 — position and weather

sailwx.info

Track history (hours):
 
Tides and Currents Weather Stations Pressure Air Temp Water Temp Dewpoint Dewpoint Depression Visibility Wind Speed Wind Dir Waves Ship Positions

Alaskan Explorer

Last reported at 2014-Jul-29 08:09 UTC. Time now 2014-Sep-20 22:10 UTC.
Position N 01°28' E 103°51'.
Warning: this ship's position is 53 days out of date.

Length 288 m; draft 8.4 m.

Type: Ship. MMSI: 303294000.

Date/timePositionNaut miles runAvg speedWind from/ knotsBaromVisibWave heightAir tempDewpointWater temp
2014-Jul-29 08:09N 01°28' E 103°51'6 5.5
2014-Jul-29 07:03N 01°25' E 103°56'3 6.5
2014-Jul-29 06:32N 01°24' E 103°59'9 9.4
2014-Jul-29 05:33N 01°18' E 104°06'6 6.2
2014-Jul-29 04:33N 01°16' E 104°00'6 5.9
2014-Jul-29 03:33N 01°14' E 103°55'9 8.5
2014-Jul-29 02:33N 01°11' E 103°47'2 0.4
2014-Jul-28 21:27N 01°11' E 103°45'0 0.1
2014-Jul-28 20:24N 01°11' E 103°45'0 0.1
2014-Jul-28 19:33N 01°11' E 103°45'0 0.2
2014-Jul-28 18:33N 01°11' E 103°45'0 0.1
2014-Jul-28 17:15N 01°11' E 103°45'0 0.1
2014-Jul-28 16:18N 01°11' E 103°45'0 0.0
2014-Jul-28 15:27N 01°11' E 103°45'0 0.0
2014-Jul-28 14:30N 01°11' E 103°45'0 0.0
2014-Jul-28 12:24N 01°11' E 103°45'0 0.0
2014-Jul-28 10:24N 01°11' E 103°45'0 0.0
2014-Jul-28 08:12N 01°11' E 103°45'0 0.0
2014-Jul-28 04:06N 01°11' E 103°45'0 0.0
2014-Jul-27 22:21N 01°11' E 103°45'0 0.3
2014-Jul-27 21:33N 01°11' E 103°45'0 0.0
2014-Jul-27 20:33N 01°11' E 103°45'0 0.0
2014-Jul-27 19:12N 01°11' E 103°45'0 0.0
2014-Jul-27 18:30N 01°11' E 103°45'0 0.1
2014-Jul-27 17:33N 01°11' E 103°45'0 0.0
2014-Jul-27 09:24N 01°11' E 103°45'0 0.0
2014-Jul-27 05:30N 01°11' E 103°45'0 0.0
2014-Jul-27 04:33N 01°11' E 103°45'0 0.0
2014-Jul-27 02:33N 01°11' E 103°45'0 0.1
2014-Jul-27 00:27N 01°11' E 103°45'0 0.2
2014-Jul-26 23:33N 01°11' E 103°45'0 0.1
2014-Jul-26 20:33N 01°11' E 103°45'0 0.0
2014-Jul-26 19:33N 01°11' E 103°45'0 0.2
2014-Jul-26 18:33N 01°11' E 103°45'0 0.0
2014-Jul-26 10:03N 01°11' E 103°45'0 0.0
2014-Jul-26 09:33N 01°11' E 103°45'0 0.4
2014-Jul-26 08:32N 01°11' E 103°45'4 4.3
2014-Jul-26 07:33N 01°11' E 103°49'8 8.4
2014-Jul-26 06:33N 01°14' E 103°57'1010.0
2014-Jul-26 05:32N 01°16' E 104°07'  
Track history (hours):
 
Tides and Currents Weather Stations Pressure Air Temp Water Temp Dewpoint Dewpoint Depression Visibility Wind Speed Wind Dir Waves Ship Positions

Alaskan Explorer

Last reported at 2014-Jul-29 08:09 UTC. Time now 2014-Sep-20 22:10 UTC.
Position N 01°28' E 103°51'.
Warning: this ship's position is 53 days out of date.

Length 288 m; draft 8.4 m.

Type: Ship. MMSI: 303294000.

Date/timePositionNaut miles runAvg speedWind from/ knotsBaromVisibWave heightAir tempDewpointWater temp
2014-Jul-29 08:09N 01°28' E 103°51'6 5.5
2014-Jul-29 07:03N 01°25' E 103°56'3 6.5
2014-Jul-29 06:32N 01°24' E 103°59'9 9.4
2014-Jul-29 05:33N 01°18' E 104°06'6 6.2
2014-Jul-29 04:33N 01°16' E 104°00'6 5.9
2014-Jul-29 03:33N 01°14' E 103°55'9 8.5
2014-Jul-29 02:33N 01°11' E 103°47'2 0.4
2014-Jul-28 21:27N 01°11' E 103°45'0 0.1
2014-Jul-28 20:24N 01°11' E 103°45'0 0.1
2014-Jul-28 19:33N 01°11' E 103°45'0 0.2
2014-Jul-28 18:33N 01°11' E 103°45'0 0.1
2014-Jul-28 17:15N 01°11' E 103°45'0 0.1
2014-Jul-28 16:18N 01°11' E 103°45'0 0.0
2014-Jul-28 15:27N 01°11' E 103°45'0 0.0
2014-Jul-28 14:30N 01°11' E 103°45'0 0.0
2014-Jul-28 12:24N 01°11' E 103°45'0 0.0
2014-Jul-28 10:24N 01°11' E 103°45'0 0.0
2014-Jul-28 08:12N 01°11' E 103°45'0 0.0
2014-Jul-28 04:06N 01°11' E 103°45'0 0.0
2014-Jul-27 22:21N 01°11' E 103°45'0 0.3
2014-Jul-27 21:33N 01°11' E 103°45'0 0.0
2014-Jul-27 20:33N 01°11' E 103°45'0 0.0
2014-Jul-27 19:12N 01°11' E 103°45'0 0.0
2014-Jul-27 18:30N 01°11' E 103°45'0 0.1
2014-Jul-27 17:33N 01°11' E 103°45'0 0.0
2014-Jul-27 09:24N 01°11' E 103°45'0 0.0
2014-Jul-27 05:30N 01°11' E 103°45'0 0.0
2014-Jul-27 04:33N 01°11' E 103°45'0 0.0
2014-Jul-27 02:33N 01°11' E 103°45'0 0.1
2014-Jul-27 00:27N 01°11' E 103°45'0 0.2
2014-Jul-26 23:33N 01°11' E 103°45'0 0.1
2014-Jul-26 20:33N 01°11' E 103°45'0 0.0
2014-Jul-26 19:33N 01°11' E 103°45'0 0.2
2014-Jul-26 18:33N 01°11' E 103°45'0 0.0
2014-Jul-26 10:03N 01°11' E 103°45'0 0.0
2014-Jul-26 09:33N 01°11' E 103°45'0 0.4
2014-Jul-26 08:32N 01°11' E 103°45'4 4.3
2014-Jul-26 07:33N 01°11' E 103°49'8 8.4
2014-Jul-26 06:33N 01°14' E 103°57'1010.0
2014-Jul-26 05:32N 01°16' E 104°07'  

Dump ship's entire track history